Terminal Aerodrome Forecast
Issued by NWS Jackson, MS

Home | Current Version | Previous Version | Text Only | Print | Product List | Glossary On
Versions: 1 2 3 4 5 6 7 8 9 10 11 12 13
535
FTUS44 KJAN 271151
TAFMEI
TAF
KMEI 271151Z 2712/2812 19005KT 5SM BR SCT025 BKN040
     FM271600 20013G19KT P6SM VCSH SCT040
     FM271900 20013G20KT P6SM VCTS SCT040CB
     FM272200 20011KT P6SM TSRA BKN050CB
     FM280700 20005KT 5SM BR VCSH OVC009=

USA.gov is the U.S. government's official web portal to all federal, state and local government web resources and services.